createdAt,value
2018-12-15T00:01:44.112Z,97516.48
2018-12-15T00:04:15.515Z,97516.98
2018-12-15T00:07:02.670Z,97516.98
2018-12-15T00:09:32.067Z,97521.96
2018-12-15T00:12:01.401Z,97518.98
2018-12-15T00:14:30.917Z,97523.87
2018-12-15T00:17:05.648Z,97519.48
2018-12-15T00:19:31.917Z,97528.89
2018-12-15T00:22:01.351Z,97528.02
2018-12-15T00:24:30.701Z,97528.02
2018-12-15T00:27:00.086Z,97529.83
2018-12-15T00:29:29.531Z,97528.12
2018-12-15T00:31:58.931Z,97523.69
2018-12-15T00:34:28.284Z,97532.16
2018-12-15T00:36:57.609Z,97525.61
2018-12-15T00:39:26.949Z,97532.33
2018-12-15T00:41:56.351Z,97520.71
2018-12-15T00:44:25.701Z,97523.80
2018-12-15T00:46:55.084Z,97525.14
2018-12-15T00:49:24.404Z,97526.48
2018-12-15T00:51:53.752Z,97525.61
2018-12-15T00:54:23.086Z,97529.75
2018-12-15T00:56:52.443Z,97529.34
2018-12-15T00:59:43.507Z,97523.97
2018-12-15T01:05:31.668Z,97529.16
2018-12-15T01:11:20.364Z,97527.55
2018-12-15T01:14:11.634Z,97528.02
2018-12-15T01:20:10.354Z,97527.62
2018-12-15T01:23:03.633Z,97523.23
2018-12-15T01:25:53.369Z,97530.05
2018-12-15T01:28:42.514Z,97519.77
2018-12-15T01:31:30.235Z,97517.45
2018-12-15T01:34:25.764Z,97523.70
2018-12-15T01:37:32.328Z,97524.57
2018-12-15T01:40:30.573Z,97526.02
2018-12-15T01:43:18.464Z,97527.83
2018-12-15T01:46:04.806Z,97523.87
2018-12-15T01:48:57.017Z,97518.50
2018-12-15T01:51:40.279Z,97525.69
2018-12-15T01:54:34.004Z,97528.38
2018-12-15T01:57:11.618Z,97526.63
2018-12-15T01:59:59.363Z,97527.50
2018-12-15T02:02:54.030Z,97523.47
2018-12-15T02:05:40.540Z,97522.60
2018-12-15T02:08:37.429Z,97518.67
2018-12-15T02:11:25.374Z,97516.97
2018-12-15T02:14:30.829Z,97509.27
2018-12-15T02:17:24.242Z,97515.12
2018-12-15T02:26:41.157Z,97501.80
2018-12-15T02:32:31.369Z,97509.08
2018-12-15T02:35:26.404Z,97507.27
2018-12-15T02:38:36.334Z,97510.42
2018-12-15T02:41:35.034Z,97514.86
2018-12-15T02:44:24.830Z,97512.24
2018-12-15T02:47:08.447Z,97509.95
2018-12-15T02:49:57.642Z,97510.42
2018-12-15T02:52:56.794Z,97513.98
2018-12-15T02:55:54.533Z,97514.92
2018-12-15T02:58:48.069Z,97508.31
2018-12-15T03:01:49.718Z,97511.47
2018-12-15T03:04:30.584Z,97507.55
2018-12-15T03:07:42.290Z,97506.20
2018-12-15T03:10:37.978Z,97504.56
2018-12-15T03:13:15.977Z,97506.88
2018-12-15T03:15:50.059Z,97506.41
2018-12-15T03:18:27.192Z,97502.45
2018-12-15T03:23:39.961Z,97494.91
2018-12-15T03:26:10.935Z,97497.95
2018-12-15T03:28:41.004Z,97497.59
2018-12-15T03:31:10.728Z,97495.84
2018-12-15T03:33:40.143Z,97495.38
2018-12-15T03:36:11.219Z,97493.16
2018-12-15T03:38:42.077Z,97495.08
2018-12-15T03:41:11.903Z,97499.88
2018-12-15T03:43:45.662Z,97496.82
2018-12-15T03:46:15.938Z,97495.08
2018-12-15T03:48:47.345Z,97494.03
2018-12-15T03:51:17.005Z,97497.48
2018-12-15T03:53:46.347Z,97497.09
2018-12-15T03:56:15.704Z,97501.22
2018-12-15T03:58:45.045Z,97503.43
2018-12-15T04:01:14.363Z,97501.69
2018-12-15T04:03:43.819Z,97500.34
2018-12-15T04:06:13.150Z,97494.13
2018-12-15T04:08:44.127Z,97490.18
2018-12-15T04:11:13.455Z,97497.30
2018-12-15T04:13:42.830Z,97486.66
2018-12-15T04:16:12.157Z,97496.23
2018-12-15T04:18:41.804Z,97498.14
2018-12-15T04:21:11.136Z,97496.50
2018-12-15T04:23:40.469Z,97490.77
2018-12-15T04:26:09.781Z,97492.11
2018-12-15T04:28:39.111Z,97483.66
2018-12-15T04:31:08.464Z,97485.00
2018-12-15T04:33:37.899Z,97494.80
2018-12-15T04:36:17.024Z,97491.23
2018-12-15T04:38:46.361Z,97494.39
2018-12-15T04:41:15.722Z,97494.89
2018-12-15T04:43:45.209Z,97498.42
2018-12-15T04:46:14.563Z,97497.95
2018-12-15T04:48:43.907Z,97497.58
2018-12-15T04:51:13.244Z,97495.73
2018-12-15T04:53:42.644Z,97496.14
2018-12-15T04:56:12.663Z,97495.67
2018-12-15T04:58:41.994Z,97495.27
2018-12-15T05:01:11.341Z,97497.58
2018-12-15T05:03:40.727Z,97495.73
2018-12-15T05:06:10.101Z,97502.45
2018-12-15T05:08:39.451Z,97501.61
2018-12-15T05:11:09.241Z,97504.30
2018-12-15T05:13:38.573Z,97509.66
2018-12-15T05:16:07.930Z,97508.32
2018-12-15T05:18:37.339Z,97513.69
2018-12-15T05:21:06.648Z,97505.23
2018-12-15T05:23:35.981Z,97504.77
2018-12-15T05:26:05.489Z,97504.77
2018-12-15T05:28:34.804Z,97507.05
2018-12-15T05:31:04.119Z,97507.45
2018-12-15T05:33:33.712Z,97502.66
2018-12-15T05:36:03.042Z,97504.09
2018-12-15T05:38:32.447Z,97510.81
2018-12-15T05:41:01.801Z,97510.81
2018-12-15T05:43:31.144Z,97510.81
2018-12-15T05:46:00.481Z,97510.41
2018-12-15T05:48:29.833Z,97509.94
2018-12-15T05:50:59.144Z,97509.94
2018-12-15T05:53:28.484Z,97513.09
2018-12-15T05:55:57.812Z,97521.14
2018-12-15T05:58:27.160Z,97514.44
2018-12-15T06:00:56.484Z,97510.88
2018-12-15T06:03:25.851Z,97510.52
2018-12-15T06:05:55.188Z,97511.75
2018-12-15T06:08:24.575Z,97509.53
2018-12-15T06:10:53.924Z,97509.06
2018-12-15T06:13:23.290Z,97509.94
2018-12-15T06:15:52.641Z,97509.53
2018-12-15T06:18:22.075Z,97510.88
2018-12-15T06:20:51.432Z,97514.53
2018-12-15T06:23:20.763Z,97506.58
2018-12-15T06:25:50.091Z,97505.61
2018-12-15T06:28:19.443Z,97505.14
2018-12-15T06:30:48.756Z,97505.72
2018-12-15T06:33:18.105Z,97503.03
2018-12-15T06:35:47.429Z,97505.61
2018-12-15T06:38:16.760Z,97513.77
2018-12-15T06:40:46.102Z,97505.72
2018-12-15T06:43:15.754Z,97509.74
2018-12-15T06:45:45.664Z,97511.25
2018-12-15T06:48:15.097Z,97509.64
2018-12-15T06:50:44.423Z,97511.92
2018-12-15T06:53:13.752Z,97516.42
2018-12-15T06:55:44.020Z,97521.32
2018-12-15T06:58:13.344Z,97525.25
2018-12-15T07:00:42.680Z,97526.69
2018-12-15T07:03:12.015Z,97522.30
2018-12-15T07:05:41.372Z,97521.32
2018-12-15T07:08:10.699Z,97524.87
2018-12-15T07:10:40.045Z,97520.85
2018-12-15T07:13:09.386Z,97519.88
2018-12-15T07:15:38.747Z,97519.51
2018-12-15T07:18:08.067Z,97529.27
2018-12-15T07:20:37.419Z,97531.38
2018-12-15T07:23:06.748Z,97527.36
2018-12-15T07:25:37.492Z,97532.26
2018-12-15T07:28:06.820Z,97532.66
2018-12-15T07:30:36.211Z,97534.00
2018-12-15T07:33:05.541Z,97529.47
2018-12-15T07:35:34.907Z,97530.81
2018-12-15T07:38:04.247Z,97538.80
2018-12-15T07:40:33.698Z,97536.11
2018-12-15T07:43:03.043Z,97536.48
2018-12-15T07:45:32.368Z,97530.64
2018-12-15T07:48:01.732Z,97536.88
2018-12-15T07:50:31.043Z,97538.13
2018-12-15T07:53:00.389Z,97533.63
2018-12-15T07:55:29.722Z,97541.17
2018-12-15T07:57:59.076Z,97537.16
2018-12-15T08:00:28.404Z,97540.23
2018-12-15T08:02:57.756Z,97540.70
2018-12-15T08:05:27.100Z,97543.29
2018-12-15T08:07:56.516Z,97538.32
2018-12-15T08:10:25.831Z,97539.20
2018-12-15T08:13:00.552Z,97542.72
2018-12-15T08:15:29.928Z,97550.20
2018-12-15T08:17:59.276Z,97539.56
2018-12-15T08:20:28.616Z,97541.78
2018-12-15T08:22:57.987Z,97543.48
2018-12-15T08:25:27.429Z,97541.67
2018-12-15T08:27:56.819Z,97545.23
2018-12-15T08:30:26.302Z,97546.11
2018-12-15T08:32:55.677Z,97539.77
2018-12-15T08:35:25.025Z,97543.79
2018-12-15T08:37:54.645Z,97540.63
2018-12-15T08:40:23.992Z,97546.37
2018-12-15T08:42:53.324Z,97545.43
2018-12-15T08:45:22.795Z,97544.96
2018-12-15T08:47:52.176Z,97546.67
2018-12-15T08:50:21.499Z,97551.57
2018-12-15T08:52:50.811Z,97553.78
2018-12-15T08:55:20.224Z,97545.73
2018-12-15T08:57:49.568Z,97547.07
2018-12-15T09:00:18.900Z,97545.63
2018-12-15T09:02:48.240Z,97544.66
2018-12-15T09:05:17.567Z,97537.94
2018-12-15T09:07:46.896Z,97537.47
2018-12-15T09:10:16.243Z,97536.12
2018-12-15T09:12:45.559Z,97534.68
2018-12-15T09:15:14.892Z,97528.84
2018-12-15T09:17:44.228Z,97525.69
2018-12-15T09:20:13.559Z,97531.92
2018-12-15T09:22:42.900Z,97528.37
2018-12-15T09:25:12.385Z,97526.92
2018-12-15T09:27:41.892Z,97521.08
2018-12-15T09:30:11.269Z,97515.23
2018-12-15T09:32:40.645Z,97513.89
2018-12-15T09:35:09.996Z,97513.39
2018-12-15T09:37:39.330Z,97512.05
2018-12-15T09:40:09.477Z,97510.23
2018-12-15T09:42:38.803Z,97502.17
2018-12-15T09:45:08.135Z,97503.41
2018-12-15T09:47:37.500Z,97503.05
2018-12-15T09:50:06.841Z,97498.91
2018-12-15T09:52:36.180Z,97495.36
2018-12-15T09:55:05.715Z,97491.26
2018-12-15T09:57:35.101Z,97486.36
2018-12-15T10:00:04.687Z,97489.41
2018-12-15T10:02:34.063Z,97483.56
2018-12-15T10:05:03.440Z,97487.13
2018-12-15T10:07:32.786Z,97485.78
2018-12-15T10:10:02.121Z,97477.73
2018-12-15T10:12:32.706Z,97475.91
2018-12-15T10:15:02.028Z,97479.44
2018-12-15T10:17:31.384Z,97470.55
2018-12-15T10:20:00.707Z,97470.91
2018-12-15T10:22:30.080Z,97468.69
2018-12-15T10:24:59.456Z,97461.51
2018-12-15T10:27:28.824Z,97457.38
2018-12-15T10:30:03.232Z,97454.22
2018-12-15T10:32:37.668Z,97443.95
2018-12-15T10:35:07.484Z,97447.97
2018-12-15T10:37:36.855Z,97437.23
2018-12-15T10:40:06.372Z,97441.66
2018-12-15T10:42:35.734Z,97439.84
2018-12-15T10:45:05.211Z,97437.99
2018-12-15T10:47:34.528Z,97441.19
2018-12-15T10:50:03.909Z,97438.97
2018-12-15T10:52:34.276Z,97435.31
2018-12-15T10:55:03.735Z,97435.23
2018-12-15T10:57:33.065Z,97431.67
2018-12-15T11:00:02.433Z,97431.67
2018-12-15T11:02:32.888Z,97432.55
2018-12-15T11:05:02.456Z,97427.58
2018-12-15T11:07:31.861Z,97430.27
2018-12-15T11:10:01.244Z,97427.11
2018-12-15T11:12:32.372Z,97424.42
2018-12-15T11:15:02.946Z,97419.41
2018-12-15T11:17:34.385Z,97419.41
2018-12-15T11:20:04.883Z,97418.94
2018-12-15T11:22:34.745Z,97412.22
2018-12-15T11:25:05.645Z,97410.88
2018-12-15T11:27:35.771Z,97416.65
2018-12-15T11:30:06.109Z,97416.14
2018-12-15T11:32:35.444Z,97412.11
2018-12-15T11:35:04.887Z,97413.45
2018-12-15T11:37:34.223Z,97411.64
2018-12-15T11:40:03.588Z,97405.41
2018-12-15T11:42:32.916Z,97408.02
2018-12-15T11:45:02.453Z,97406.67
2018-12-15T11:47:32.900Z,97411.53
2018-12-15T11:50:02.267Z,97410.30
2018-12-15T11:52:31.614Z,97403.11
2018-12-15T11:55:00.932Z,97406.75
2018-12-15T11:57:31.040Z,97399.95
2018-12-15T12:00:00.861Z,97396.39
2018-12-15T12:02:32.022Z,97393.23
2018-12-15T12:05:01.603Z,97399.09
2018-12-15T12:07:31.983Z,97403.48
2018-12-15T12:10:02.324Z,97404.64
2018-12-15T12:12:31.929Z,97396.58
2018-12-15T12:15:01.344Z,97395.13
2018-12-15T12:17:31.744Z,97396.88
2018-12-15T12:20:02.927Z,97393.20
2018-12-15T12:22:32.348Z,97395.78
2018-12-15T12:25:01.709Z,97389.94
2018-12-15T12:27:33.076Z,97384.09
2018-12-15T12:30:02.844Z,97380.93
2018-12-15T12:32:33.648Z,97379.08
2018-12-15T12:35:02.975Z,97375.92
2018-12-15T12:37:32.313Z,97374.11
2018-12-15T12:40:01.624Z,97367.68
2018-12-15T12:42:32.112Z,97374.87
2018-12-15T12:45:01.435Z,97373.41
2018-12-15T12:47:30.774Z,97370.25
2018-12-15T12:50:00.240Z,97374.28
2018-12-15T12:52:31.060Z,97372.36
2018-12-15T12:55:01.024Z,97370.54
2018-12-15T12:57:30.457Z,97374.57
2018-12-15T12:59:59.988Z,97374.57
2018-12-15T13:02:29.373Z,97378.61
2018-12-15T13:04:59.754Z,97381.66
2018-12-15T13:07:29.120Z,97382.89
2018-12-15T13:09:58.451Z,97380.20
2018-12-15T13:12:28.672Z,97381.07
2018-12-15T13:14:58.109Z,97384.16
2018-12-15T13:17:27.448Z,97383.17
2018-12-15T13:20:03.461Z,97387.68
2018-12-15T13:22:28.128Z,97382.30
2018-12-15T13:24:57.478Z,97386.73
2018-12-15T13:27:26.956Z,97386.63
2018-12-15T13:29:56.319Z,97391.12
2018-12-15T13:32:25.655Z,97388.55
2018-12-15T13:34:55.014Z,97386.63
2018-12-15T13:37:24.359Z,97385.39
2018-12-15T13:39:53.735Z,97384.05
2018-12-15T13:42:23.114Z,97387.97
2018-12-15T13:44:52.536Z,97392.39
2018-12-15T13:47:21.888Z,97385.75
2018-12-15T13:49:51.322Z,97389.20
2018-12-15T13:52:20.679Z,97392.28
2018-12-15T13:54:50.082Z,97390.55
2018-12-15T13:57:19.727Z,97392.76
2018-12-15T13:59:49.071Z,97397.77
2018-12-15T14:02:18.688Z,97404.38
2018-12-15T14:04:48.080Z,97401.69
2018-12-15T14:07:17.452Z,97401.22
2018-12-15T14:09:46.873Z,97406.09
2018-12-15T14:12:16.244Z,97408.70
2018-12-15T14:14:45.592Z,97411.86
2018-12-15T14:17:17.001Z,97408.41
2018-12-15T14:19:46.596Z,97410.70
2018-12-15T14:22:15.940Z,97411.20
2018-12-15T14:24:45.299Z,97416.58
2018-12-15T14:27:14.662Z,97405.83
2018-12-15T14:29:43.984Z,97410.34
2018-12-15T14:32:13.416Z,97413.13
2018-12-15T14:34:42.747Z,97416.66
2018-12-15T14:37:12.157Z,97417.23
2018-12-15T14:39:41.630Z,97424.36
2018-12-15T14:42:11.068Z,97425.30
2018-12-15T14:44:46.760Z,97419.09
2018-12-15T14:47:16.165Z,97427.63
2018-12-15T14:49:45.547Z,97420.44
2018-12-15T14:52:14.975Z,97417.34
2018-12-15T14:54:44.324Z,97426.28
2018-12-15T14:57:16.783Z,97426.28
2018-12-15T14:59:46.173Z,97428.97
2018-12-15T15:02:15.544Z,97425.80
2018-12-15T15:04:45.152Z,97428.09
2018-12-15T15:07:14.576Z,97430.31
2018-12-15T15:09:43.927Z,97430.78
2018-12-15T15:12:13.346Z,97431.66
2018-12-15T15:14:49.064Z,97429.44
2018-12-15T15:17:18.473Z,97429.91
2018-12-15T15:19:47.901Z,97427.63
2018-12-15T15:22:17.294Z,97428.56
2018-12-15T15:24:46.759Z,97432.59
2018-12-15T15:27:16.111Z,97426.86
2018-12-15T15:29:45.425Z,97430.02
2018-12-15T15:32:14.771Z,97430.50
2018-12-15T15:34:44.139Z,97430.02
2018-12-15T15:37:13.488Z,97431.37
2018-12-15T15:39:43.445Z,97430.50
2018-12-15T15:42:13.913Z,97426.97
2018-12-15T15:44:43.554Z,97433.18
2018-12-15T15:47:12.972Z,97436.27
2018-12-15T15:49:42.370Z,97433.69
2018-12-15T15:52:11.740Z,97431.84
2018-12-15T15:54:41.095Z,97434.45
2018-12-15T15:57:11.678Z,97429.62
2018-12-15T15:59:41.376Z,97438.08
2018-12-15T16:02:10.749Z,97435.39
2018-12-15T16:04:40.152Z,97431.44
2018-12-15T16:07:09.624Z,97435.97
2018-12-15T16:09:44.765Z,97443.17
2018-12-15T16:12:10.403Z,97435.58
2018-12-15T16:14:39.783Z,97434.70
2018-12-15T16:17:09.152Z,97440.66
2018-12-15T16:19:38.498Z,97437.61
2018-12-15T16:22:08.865Z,97443.86
2018-12-15T16:24:38.242Z,97442.52
2018-12-15T16:27:07.595Z,97437.21
2018-12-15T16:29:36.932Z,97442.11
2018-12-15T16:32:07.603Z,97449.30
2018-12-15T16:34:36.951Z,97446.03
2018-12-15T16:37:10.074Z,97444.33
2018-12-15T16:39:39.395Z,97445.20
2018-12-15T16:42:08.751Z,97444.33
2018-12-15T16:44:38.096Z,97447.37
2018-12-15T16:47:14.097Z,97447.78
2018-12-15T16:49:43.411Z,97446.03
2018-12-15T16:52:12.760Z,97446.54
2018-12-15T16:54:42.124Z,97450.47
2018-12-15T16:57:11.485Z,97450.47
2018-12-15T16:59:40.852Z,97447.89
2018-12-15T17:02:10.253Z,97451.34
2018-12-15T17:04:39.703Z,97448.65
2018-12-15T17:07:09.061Z,97454.97
2018-12-15T17:09:38.388Z,97457.66
2018-12-15T17:12:07.744Z,97457.66
2018-12-15T17:14:37.091Z,97459.88
2018-12-15T17:17:06.476Z,97462.08
2018-12-15T17:19:35.804Z,97466.59
2018-12-15T17:22:05.164Z,97466.59
2018-12-15T17:24:35.528Z,97466.19
2018-12-15T17:27:04.903Z,97461.32
2018-12-15T17:29:34.253Z,97468.88
2018-12-15T17:32:03.718Z,97465.35
2018-12-15T17:34:33.067Z,97470.22
2018-12-15T17:37:02.449Z,97475.59
2018-12-15T17:39:31.948Z,97472.14
2018-12-15T17:42:01.320Z,97473.99
2018-12-15T17:44:30.677Z,97473.13
2018-12-15T17:47:00.013Z,97472.14
2018-12-15T17:49:29.376Z,97471.31
2018-12-15T17:51:58.736Z,97465.83
2018-12-15T17:54:28.101Z,97464.95
2018-12-15T17:56:57.516Z,97471.20
2018-12-15T17:59:27.504Z,97466.59
2018-12-15T18:01:57.742Z,97468.80
2018-12-15T18:04:27.131Z,97462.92
2018-12-15T18:06:56.556Z,97463.80
2018-12-15T18:09:25.932Z,97460.74
2018-12-15T18:11:55.293Z,97461.21
2018-12-15T18:14:24.922Z,97448.72
2018-12-15T18:16:54.257Z,97452.28
2018-12-15T18:19:23.872Z,97454.50
2018-12-15T18:21:53.253Z,97449.99
2018-12-15T18:24:22.624Z,97450.36
2018-12-15T18:26:52.279Z,97448.25
2018-12-15T18:29:22.415Z,97455.84
2018-12-15T18:31:51.824Z,97454.02
2018-12-15T18:34:21.292Z,97454.97
2018-12-15T18:36:50.672Z,97455.95
2018-12-15T18:39:20.047Z,97448.47
2018-12-15T18:41:49.396Z,97455.19
2018-12-15T18:44:18.779Z,97463.24
2018-12-15T18:46:48.267Z,97460.63
2018-12-15T18:49:17.631Z,97463.31
2018-12-15T18:51:48.048Z,97457.47
2018-12-15T18:54:17.480Z,97456.02
2018-12-15T18:56:47.589Z,97457.88
2018-12-15T18:59:17.215Z,97449.30
2018-12-15T19:01:47.645Z,97449.81
2018-12-15T19:04:17.072Z,97449.81
2018-12-15T19:06:46.504Z,97451.62
2018-12-15T19:09:17.071Z,97448.06
2018-12-15T19:11:46.448Z,97445.27
2018-12-15T19:14:15.860Z,97441.75
2018-12-15T19:16:45.252Z,97443.56
2018-12-15T19:19:15.821Z,97449.81
2018-12-15T19:21:45.185Z,97446.62
2018-12-15T19:24:14.657Z,97451.52
2018-12-15T19:26:44.046Z,97445.67
2018-12-15T19:29:13.402Z,97447.30
2018-12-15T19:31:42.840Z,97438.01
2018-12-15T19:34:17.447Z,97439.93
2018-12-15T19:36:44.818Z,97444.83
2018-12-15T19:39:14.186Z,97443.96
2018-12-15T19:41:43.609Z,97446.54
2018-12-15T19:44:13.049Z,97445.09
2018-12-15T19:46:42.415Z,97446.94
2018-12-15T19:49:12.304Z,97449.88
2018-12-15T19:51:41.844Z,97445.85
2018-12-15T19:54:11.183Z,97439.53
2018-12-15T19:56:40.552Z,97447.37
2018-12-15T19:59:14.301Z,97445.20
2018-12-15T20:01:44.444Z,97449.70
2018-12-15T20:04:13.852Z,97442.88
2018-12-15T20:06:43.177Z,97439.61
2018-12-15T20:09:12.559Z,97444.88
2018-12-15T20:11:41.930Z,97444.04
2018-12-15T20:14:11.368Z,97444.62
2018-12-15T20:16:40.752Z,97438.38
2018-12-15T20:19:10.136Z,97436.16
2018-12-15T20:21:39.528Z,97435.80
2018-12-15T20:24:09.831Z,97433.94
2018-12-15T20:26:39.160Z,97431.26
2018-12-15T20:29:08.503Z,97428.56
2018-12-15T20:31:37.844Z,97427.23
2018-12-15T20:34:07.253Z,97423.20
2018-12-15T20:36:37.200Z,97421.85
2018-12-15T20:39:07.948Z,97424.06
2018-12-15T20:41:37.320Z,97420.03
2018-12-15T20:44:06.665Z,97424.06
2018-12-15T20:46:36.018Z,97418.58
2018-12-15T20:49:05.364Z,97418.58
2018-12-15T20:51:34.695Z,97412.84
2018-12-15T20:54:04.065Z,97412.38
2018-12-15T20:56:33.397Z,97417.75
2018-12-15T20:59:02.732Z,97414.55
2018-12-15T21:01:32.122Z,97414.55
2018-12-15T21:04:01.456Z,97414.55
2018-12-15T21:06:31.844Z,97410.92
2018-12-15T21:09:01.179Z,97417.64
2018-12-15T21:11:31.673Z,97411.79
2018-12-15T21:14:01.004Z,97405.91
2018-12-15T21:16:30.367Z,97405.44
2018-12-15T21:18:59.704Z,97404.09
2018-12-15T21:21:29.149Z,97404.09
2018-12-15T21:23:58.508Z,97402.75
2018-12-15T21:26:27.876Z,97391.52
2018-12-15T21:28:57.204Z,97393.23
2018-12-15T21:31:26.569Z,97398.53
2018-12-15T21:33:55.916Z,97390.94
2018-12-15T21:36:25.268Z,97392.65
2018-12-15T21:38:54.602Z,97385.09
2018-12-15T21:41:24.127Z,97385.45
2018-12-15T21:43:53.473Z,97383.64
2018-12-15T21:46:22.843Z,97396.61
2018-12-15T21:48:52.176Z,97394.39
2018-12-15T21:51:21.548Z,97393.05
2018-12-15T21:53:50.889Z,97396.09
2018-12-15T21:56:20.292Z,97386.69
2018-12-15T21:58:49.623Z,97379.97
2018-12-15T22:01:19.009Z,97381.24
2018-12-15T22:03:48.344Z,97383.42
2018-12-15T22:06:17.968Z,97384.88
2018-12-15T22:08:47.297Z,97390.64
2018-12-15T22:11:16.640Z,97394.17
2018-12-15T22:13:45.991Z,97392.83
2018-12-15T22:16:15.336Z,97395.04
2018-12-15T22:18:44.673Z,97399.55
2018-12-15T22:21:14.016Z,97399.47
2018-12-15T22:23:43.395Z,97394.57
2018-12-15T22:26:12.729Z,97392.83
2018-12-15T22:28:42.072Z,97393.34
2018-12-15T22:31:11.395Z,97393.81
2018-12-15T22:33:40.763Z,97398.78
2018-12-15T22:36:10.104Z,97401.98
2018-12-15T22:38:39.610Z,97401.11
2018-12-15T22:41:08.983Z,97397.95
2018-12-15T22:43:38.371Z,97395.34
2018-12-15T22:46:07.692Z,97395.73
2018-12-15T22:48:37.054Z,97390.36
2018-12-15T22:51:06.407Z,97390.36
2018-12-15T22:53:35.767Z,97397.45
2018-12-15T22:56:05.111Z,97397.55
2018-12-15T22:58:34.468Z,97393.16
2018-12-15T23:01:12.097Z,97393.16
2018-12-15T23:03:43.501Z,97389.13
2018-12-15T23:06:12.858Z,97388.25
2018-12-15T23:08:42.216Z,97391.89
2018-12-15T23:11:11.547Z,97391.05
2018-12-15T23:13:40.896Z,97395.56
2018-12-15T23:16:10.235Z,97395.16
2018-12-15T23:18:40.606Z,97395.27
2018-12-15T23:21:09.944Z,97401.52
2018-12-15T23:23:39.280Z,97392.11
2018-12-15T23:26:08.633Z,97388.55
2018-12-15T23:28:37.979Z,97395.27
2018-12-15T23:31:07.328Z,97399.77
2018-12-15T23:33:36.832Z,97396.25
2018-12-15T23:36:06.172Z,97397.20
2018-12-15T23:38:35.528Z,97398.53
2018-12-15T23:41:04.851Z,97398.06
2018-12-15T23:43:34.193Z,97393.64
2018-12-15T23:46:03.552Z,97398.17
2018-12-15T23:48:32.889Z,97399.59
2018-12-15T23:51:02.243Z,97400.10
2018-12-15T23:53:31.587Z,97408.16
2018-12-15T23:56:00.944Z,97402.28
2018-12-15T23:58:30.299Z,97400.10
